createdAt,value
2024-03-02T00:01:04.506Z,9.28
2024-03-02T00:06:01.221Z,9.40
2024-03-02T00:10:58.902Z,9.08
2024-03-02T00:15:56.847Z,9.30
2024-03-02T00:20:57.222Z,9.37
2024-03-02T00:25:54.446Z,9.06
2024-03-02T00:31:04.467Z,9.07
2024-03-02T00:36:01.767Z,8.90
2024-03-02T00:40:59.865Z,8.89
2024-03-02T00:45:56.469Z,8.87
2024-03-02T00:50:53.787Z,8.94
2024-03-02T00:55:50.490Z,8.93
2024-03-02T01:00:47.119Z,9.24
2024-03-02T01:05:43.844Z,8.92
2024-03-02T01:10:41.205Z,8.70
2024-03-02T01:15:37.955Z,9.03
2024-03-02T01:20:34.570Z,9.12
2024-03-02T01:25:31.190Z,8.71
2024-03-02T01:30:28.396Z,8.80
2024-03-02T01:35:25.561Z,8.70
2024-03-02T01:40:22.108Z,8.55
2024-03-02T01:45:19.078Z,8.60
2024-03-02T01:50:16.382Z,8.59
2024-03-02T01:55:12.920Z,8.92
2024-03-02T02:00:10.296Z,8.74
2024-03-02T02:05:10.285Z,8.72
2024-03-02T02:10:07.974Z,8.73
2024-03-02T02:15:04.877Z,9.00
2024-03-02T02:20:01.454Z,8.62
2024-03-02T02:24:58.840Z,8.98
2024-03-02T02:29:56.632Z,8.72
2024-03-02T02:34:53.297Z,8.66
2024-03-02T02:39:49.936Z,8.57
2024-03-02T02:44:47.201Z,8.42
2024-03-02T02:49:43.885Z,8.41
2024-03-02T02:54:40.646Z,8.45
2024-03-02T02:59:37.689Z,8.46
2024-03-02T03:04:34.979Z,8.50
2024-03-02T03:09:31.686Z,8.72
2024-03-02T03:14:28.372Z,8.60
2024-03-02T03:19:24.923Z,8.96
2024-03-02T03:24:22.231Z,8.59
2024-03-02T03:29:18.798Z,8.68
2024-03-02T03:34:18.147Z,8.90
2024-03-02T03:39:14.809Z,8.65
2024-03-02T03:44:11.966Z,8.67
2024-03-02T03:49:08.862Z,8.80
2024-03-02T03:54:05.545Z,8.86
2024-03-02T03:59:02.218Z,8.97
2024-03-02T04:03:59.451Z,8.95
2024-03-02T04:08:56.176Z,8.95
2024-03-02T04:13:54.230Z,9.01
2024-03-02T04:18:51.381Z,9.33
2024-03-02T04:23:48.664Z,9.04
2024-03-02T04:28:47.457Z,8.87
2024-03-02T04:33:44.084Z,9.28
2024-03-02T04:38:40.664Z,9.24
2024-03-02T04:43:37.937Z,9.10
2024-03-02T04:48:34.991Z,9.38
2024-03-02T04:53:31.659Z,9.01
2024-03-02T04:58:28.305Z,8.95
2024-03-02T05:03:25.497Z,8.83
2024-03-02T05:08:22.247Z,9.28
2024-03-02T05:13:18.946Z,8.96
2024-03-02T05:18:15.535Z,8.83
2024-03-02T05:23:12.797Z,9.02
2024-03-02T05:28:09.427Z,8.99
2024-03-02T05:33:06.114Z,8.86
2024-03-02T05:38:02.768Z,8.90
2024-03-02T05:43:00.064Z,8.82
2024-03-02T05:47:56.745Z,8.79
2024-03-02T05:52:53.366Z,8.84
2024-03-02T05:58:02.945Z,8.82
2024-03-02T06:03:00.220Z,8.76
2024-03-02T06:07:56.859Z,8.80
2024-03-02T06:12:53.462Z,8.78
2024-03-02T06:17:50.040Z,8.74
2024-03-02T06:22:47.441Z,8.75
2024-03-02T06:27:44.143Z,9.00
2024-03-02T06:32:40.827Z,9.00
2024-03-02T06:37:37.443Z,9.17
2024-03-02T06:42:35.072Z,8.90
2024-03-02T06:47:31.862Z,9.03
2024-03-02T06:52:28.509Z,9.05
2024-03-02T06:57:25.330Z,8.96
2024-03-02T07:02:23.426Z,8.92
2024-03-02T07:07:20.245Z,8.80
2024-03-02T07:12:16.970Z,8.84
2024-03-02T07:17:13.682Z,8.83
2024-03-02T07:22:11.232Z,9.15
2024-03-02T07:27:07.830Z,8.83
2024-03-02T07:32:04.744Z,8.85
2024-03-02T07:37:01.720Z,8.77
2024-03-02T07:41:59.050Z,8.88
2024-03-02T07:46:55.663Z,8.93
2024-03-02T07:51:52.327Z,9.02
2024-03-02T07:56:48.998Z,9.05
2024-03-02T08:01:46.389Z,9.30
2024-03-02T08:06:43.083Z,9.56
2024-03-02T08:11:39.827Z,9.32
2024-03-02T08:16:36.539Z,9.19
2024-03-02T08:21:35.762Z,9.06
2024-03-02T08:26:32.374Z,9.07
2024-03-02T08:31:28.938Z,9.40
2024-03-02T08:36:25.753Z,9.59
2024-03-02T08:41:23.030Z,9.78
2024-03-02T08:46:19.594Z,9.64
2024-03-02T08:51:16.219Z,9.63
2024-03-02T08:56:13.441Z,9.90
2024-03-02T09:01:10.850Z,10.12
2024-03-02T09:06:07.476Z,9.99
2024-03-02T09:11:04.361Z,9.84
2024-03-02T09:16:01.172Z,9.98
2024-03-02T09:20:58.464Z,9.95
2024-03-02T09:25:55.074Z,10.04
2024-03-02T09:30:51.756Z,10.22
2024-03-02T09:35:49.315Z,10.21
2024-03-02T09:40:46.638Z,10.27
2024-03-02T09:45:43.897Z,10.65
2024-03-02T09:50:40.486Z,10.45
2024-03-02T09:55:37.137Z,10.42
2024-03-02T10:00:34.625Z,10.54
2024-03-02T10:05:31.326Z,10.64
2024-03-02T10:10:35.059Z,10.39
2024-03-02T10:15:31.902Z,10.48
2024-03-02T10:20:29.904Z,10.43
2024-03-02T10:25:40.563Z,10.44
2024-03-02T10:30:44.319Z,10.41
2024-03-02T10:35:41.923Z,10.49
2024-03-02T10:40:38.478Z,10.75
2024-03-02T10:45:35.252Z,10.93
2024-03-02T10:50:32.362Z,10.81
2024-03-02T10:55:29.978Z,10.66
2024-03-02T11:00:30.682Z,10.48
2024-03-02T11:05:28.789Z,10.55
2024-03-02T11:10:26.245Z,10.89
2024-03-02T11:15:27.679Z,11.26
2024-03-02T11:20:25.194Z,11.06
2024-03-02T11:25:25.704Z,10.88
2024-03-02T11:30:38.170Z,10.79
2024-03-02T11:35:35.904Z,10.98
2024-03-02T11:40:32.729Z,10.96
2024-03-02T11:45:32.038Z,11.18
2024-03-02T11:50:29.908Z,11.07
2024-03-02T11:55:27.357Z,11.17
2024-03-02T12:00:24.125Z,11.11
2024-03-02T12:05:21.885Z,10.99
2024-03-02T12:10:20.124Z,11.07
2024-03-02T12:15:17.595Z,11.12
2024-03-02T12:20:14.231Z,11.11
2024-03-02T12:25:10.863Z,11.11
2024-03-02T12:30:11.165Z,11.15
2024-03-02T12:35:13.883Z,11.20
2024-03-02T12:40:12.020Z,11.25
2024-03-02T12:45:10.197Z,11.18
2024-03-02T12:50:07.431Z,11.45
2024-03-02T12:55:05.789Z,11.27
2024-03-02T13:00:09.266Z,11.36
2024-03-02T13:05:07.154Z,11.42
2024-03-02T13:10:04.996Z,11.50
2024-03-02T13:15:02.804Z,11.45
2024-03-02T13:20:00.023Z,11.57
2024-03-02T13:24:56.704Z,11.69
2024-03-02T13:29:55.189Z,11.80
2024-03-02T13:34:52.178Z,11.79
2024-03-02T13:39:49.278Z,11.81
2024-03-02T13:44:47.854Z,11.65
2024-03-02T13:49:47.147Z,11.65
2024-03-02T13:54:44.872Z,11.73
2024-03-02T13:59:41.993Z,11.78
2024-03-02T14:04:39.241Z,11.81
2024-03-02T14:09:36.950Z,11.85
2024-03-02T14:14:34.006Z,11.93
2024-03-02T14:19:31.278Z,11.90
2024-03-02T14:24:29.863Z,12.09
2024-03-02T14:29:27.428Z,12.04
2024-03-02T14:34:24.426Z,12.02
2024-03-02T14:39:21.229Z,12.17
2024-03-02T14:44:18.306Z,12.03
2024-03-02T14:49:15.788Z,12.04
2024-03-02T14:54:12.538Z,12.31
2024-03-02T14:59:09.400Z,12.24
2024-03-02T15:04:06.190Z,12.17
2024-03-02T15:09:04.035Z,12.18
2024-03-02T15:14:00.667Z,12.25
2024-03-02T15:18:57.552Z,12.16
2024-03-02T15:23:54.221Z,12.22
2024-03-02T15:28:52.060Z,12.18
2024-03-02T15:33:48.724Z,12.28
2024-03-02T15:38:45.569Z,12.50
2024-03-02T15:43:43.289Z,12.36
2024-03-02T15:48:40.958Z,12.38
2024-03-02T15:53:37.600Z,12.57
2024-03-02T15:58:36.485Z,12.44
2024-03-02T16:03:33.379Z,12.27
2024-03-02T16:08:33.119Z,12.44
2024-03-02T16:13:30.678Z,12.38
2024-03-02T16:18:27.257Z,12.28
2024-03-02T16:23:24.076Z,12.35
2024-03-02T16:28:21.740Z,12.20
2024-03-02T16:33:19.048Z,12.47
2024-03-02T16:38:15.728Z,12.30
2024-03-02T16:43:12.545Z,12.29
2024-03-02T16:48:09.922Z,12.19
2024-03-02T16:53:06.775Z,12.16
2024-03-02T16:58:03.552Z,12.45
2024-03-02T17:03:00.292Z,12.50
2024-03-02T17:07:58.702Z,12.44
2024-03-02T17:12:56.076Z,12.20
2024-03-02T17:17:52.942Z,12.17
2024-03-02T17:22:49.505Z,12.13
2024-03-02T17:27:46.846Z,11.94
2024-03-02T17:32:45.282Z,11.79
2024-03-02T17:37:41.871Z,11.75
2024-03-02T17:42:38.633Z,11.77
2024-03-02T17:47:36.061Z,11.76
2024-03-02T17:52:32.750Z,11.83
2024-03-02T17:57:29.635Z,11.66
2024-03-02T18:02:27.722Z,11.58
2024-03-02T18:07:25.061Z,11.49
2024-03-02T18:12:21.642Z,11.63
2024-03-02T18:17:19.088Z,11.76
2024-03-02T18:22:15.764Z,11.49
2024-03-02T18:27:13.149Z,11.66
2024-03-02T18:32:09.721Z,11.90
2024-03-02T18:37:06.367Z,11.52
2024-03-02T18:42:03.393Z,11.67
2024-03-02T18:47:00.629Z,11.62
2024-03-02T18:51:57.370Z,11.53
2024-03-02T18:56:54.299Z,11.39
2024-03-02T19:01:51.373Z,11.60
2024-03-02T19:06:49.032Z,11.27
2024-03-02T19:11:45.717Z,11.44
2024-03-02T19:16:44.530Z,11.28
2024-03-02T19:21:41.117Z,11.23
2024-03-02T19:26:38.389Z,11.08
2024-03-02T19:31:35.012Z,11.22
2024-03-02T19:36:31.634Z,11.09
2024-03-02T19:41:28.380Z,10.85
2024-03-02T19:46:25.632Z,11.19
2024-03-02T19:51:22.287Z,11.18
2024-03-02T19:56:39.215Z,11.32
2024-03-02T20:01:36.885Z,11.12
2024-03-02T20:06:33.655Z,11.18
2024-03-02T20:11:31.635Z,11.01
2024-03-02T20:16:28.374Z,11.15
2024-03-02T20:21:25.969Z,11.31
2024-03-02T20:26:22.783Z,11.25
2024-03-02T20:31:20.016Z,11.21
2024-03-02T20:36:16.823Z,11.27
2024-03-02T20:41:17.713Z,11.19
2024-03-02T20:46:15.097Z,11.25
2024-03-02T20:51:11.790Z,11.43
2024-03-02T20:56:08.458Z,11.44
2024-03-02T21:01:06.491Z,11.17
2024-03-02T21:06:05.416Z,10.57
2024-03-02T21:11:02.878Z,10.56
2024-03-02T21:15:59.499Z,10.51
2024-03-02T21:20:56.812Z,10.62
2024-03-02T21:25:53.450Z,10.27
2024-03-02T21:30:50.183Z,10.38
2024-03-02T21:35:46.768Z,10.50
2024-03-02T21:40:44.348Z,10.02
2024-03-02T21:45:40.924Z,10.28
2024-03-02T21:50:37.667Z,10.58
2024-03-02T21:55:34.224Z,10.43
2024-03-02T22:00:31.596Z,10.31
2024-03-02T22:05:29.215Z,10.42
2024-03-02T22:10:25.910Z,10.31
2024-03-02T22:15:22.547Z,9.92
2024-03-02T22:20:22.363Z,9.72
2024-03-02T22:25:19.128Z,10.04
2024-03-02T22:30:15.854Z,10.15
2024-03-02T22:35:12.462Z,10.24
2024-03-02T22:40:11.382Z,10.32
2024-03-02T22:45:08.428Z,10.33
2024-03-02T22:50:06.234Z,10.15
2024-03-02T22:55:02.894Z,10.11
2024-03-02T23:00:00.206Z,9.84
2024-03-02T23:04:56.764Z,9.13
2024-03-02T23:09:53.428Z,8.97
2024-03-02T23:14:50.235Z,9.24
2024-03-02T23:19:47.527Z,9.55
2024-03-02T23:24:44.160Z,9.83
2024-03-02T23:29:40.872Z,9.76
2024-03-02T23:34:38.527Z,9.30
2024-03-02T23:40:09.011Z,9.40
2024-03-02T23:45:06.056Z,9.38
2024-03-02T23:50:03.450Z,9.45
2024-03-02T23:55:00.975Z,9.20
2024-03-02T23:59:58.764Z,8.76
